Cynthiana, Indiana
Current Conditions -  °F | °C
As of 9:16 AM on Monday 24 Nov 2014 (Local Time) from KEVV Reporting Station
Overcast Overcast  
Wind Chill: 36°   Ceiling: 2500
Heat Index: 44°   Visibility: 10mi
Dew Point: 35°   Wind: 20mph
Humidity: 71%   Direction: 260°W
Pressure: 29.65"   Gusts: 36mph
Location:  38.19°N, 87.71°W
Report Text: KEVV 241516Z 26017G31KT 10SM BKN025 OVC038 07/02 A2965 RMK AO2 PK WND 25031/1510 T00670017
Loading
Personal Weather Stations






























Interactive Weather Map New forecast layout! Learn more

10-Day Weather Forecast

Advertisements
Track Severe Weather on mobile